Time;durP1;ratioP1;P1;durP2;ratioP2;P2;SDS_P1;SDS_P2;PMS_P1;PMS_P2;Temp;Humidity;BMP_temperature;BMP_pressure;BME280_temperature;BME280_humidity;BME280_pressure;Samples;Min_cycle;Max_cycle;Signal;HPM_P1;HPM_P2
2021/12/29 00:02:34;;;;;;;6.62;2.85;;;8.60;99.90;;;;;;7333364;32;20249;-67
2021/12/29 00:06:36;;;;;;;5.10;2.15;;;8.60;99.90;;;;;;7334683;32;20297;-67
2021/12/29 00:10:38;;;;;;;4.70;2.70;;;8.50;99.90;;;;;;7323430;32;20232;-66
2021/12/29 00:14:39;;;;;;;4.57;2.80;;;8.60;99.90;;;;;;7313106;32;20199;-66
2021/12/29 00:18:41;;;;;;;4.95;3.35;;;8.50;99.90;;;;;;7312898;32;20108;-66
2021/12/29 00:22:43;;;;;;;3.97;3.53;;;8.60;99.90;;;;;;7319483;32;20320;-67
2021/12/29 00:26:45;;;;;;;4.43;3.50;;;8.60;99.90;;;;;;7316769;32;20150;-68
2021/12/29 00:30:47;;;;;;;5.53;3.75;;;8.60;99.90;;;;;;7318343;32;20853;-68
2021/12/29 00:34:49;;;;;;;7.18;4.18;;;8.60;99.90;;;;;;7320923;32;20116;-67
2021/12/29 00:38:50;;;;;;;6.03;4.43;;;8.60;99.90;;;;;;7326373;32;20708;-66
2021/12/29 00:42:52;;;;;;;6.90;4.45;;;8.60;99.90;;;;;;7322771;32;20108;-66
2021/12/29 00:46:54;;;;;;;6.22;4.57;;;8.60;99.90;;;;;;7315740;32;20575;-67
2021/12/29 00:50:56;;;;;;;6.95;4.85;;;8.60;99.90;;;;;;7315440;32;20233;-66
2021/12/29 00:55:00;;;;;;;6.12;4.97;;;8.60;99.90;;;;;;7310539;32;20115;-67
2021/12/29 00:59:02;;;;;;;7.00;5.05;;;8.60;99.90;;;;;;7318524;32;20185;-66
2021/12/29 01:03:07;;;;;;;8.50;4.97;;;8.60;99.90;;;;;;7321080;32;20199;-67
2021/12/29 01:07:09;;;;;;;10.13;5.50;;;8.60;99.90;;;;;;7324841;32;20513;-67
2021/12/29 01:11:12;;;;;;;6.70;5.00;;;8.60;99.90;;;;;;7320964;32;20112;-67
2021/12/29 01:15:17;;;;;;;11.30;5.50;;;8.60;99.90;;;;;;7319135;32;20185;-67
2021/12/29 01:19:24;;;;;;;7.37;4.87;;;8.60;99.90;;;;;;7315367;32;20182;-67
2021/12/29 01:23:25;;;;;;;8.25;5.00;;;8.60;99.90;;;;;;7315172;32;20567;-66
2021/12/29 01:27:27;;;;;;;6.65;4.85;;;8.70;99.90;;;;;;7322732;32;20285;-66
2021/12/29 01:31:29;;;;;;;6.90;4.40;;;8.60;99.90;;;;;;7331856;32;20115;-67
2021/12/29 01:35:31;;;;;;;7.87;4.62;;;8.60;99.90;;;;;;7344498;32;20119;-67
2021/12/29 01:39:32;;;;;;;7.12;4.75;;;8.60;99.90;;;;;;7335244;32;20284;-67
2021/12/29 01:43:34;;;;;;;11.60;6.00;;;8.60;99.90;;;;;;7325039;32;20731;-67
2021/12/29 01:47:36;;;;;;;7.68;6.20;;;8.70;99.90;;;;;;7332391;32;20128;-67
2021/12/29 01:51:47;;;;;;;11.12;6.85;;;8.60;99.90;;;;;;7330706;32;20187;-66
2021/12/29 01:55:51;;;;;;;9.40;7.15;;;8.60;99.90;;;;;;7328917;32;20103;-68
2021/12/29 01:59:52;;;;;;;12.80;6.40;;;8.60;99.90;;;;;;7336788;32;20776;-67
2021/12/29 02:03:55;;;;;;;8.75;6.47;;;8.60;99.90;;;;;;7320158;32;20183;-67
2021/12/29 02:07:57;;;;;;;10.95;7.43;;;8.60;99.90;;;;;;7323958;32;20265;-66
2021/12/29 02:12:00;;;;;;;9.23;6.75;;;8.60;99.90;;;;;;7327509;32;20122;-67
2021/12/29 02:16:02;;;;;;;8.63;6.72;;;8.60;99.90;;;;;;7323219;32;20213;-66
2021/12/29 02:20:08;;;;;;;9.80;6.18;;;8.70;99.90;;;;;;7329298;32;20104;-67
2021/12/29 02:28:13;;;;;;;6.68;4.35;;;8.70;99.90;;;;;;7328473;32;20096;-67
2021/12/29 02:32:15;;;;;;;5.53;3.90;;;8.70;99.90;;;;;;7343504;32;20128;-67
2021/12/29 02:36:17;;;;;;;5.18;3.75;;;8.60;99.90;;;;;;7335586;32;20368;-67
2021/12/29 02:40:19;;;;;;;5.50;4.03;;;8.60;99.90;;;;;;7331925;32;20478;-67
2021/12/29 02:44:29;;;;;;;6.75;4.30;;;8.60;99.90;;;;;;7328516;32;20126;-66
2021/12/29 02:48:37;;;;;;;5.70;3.28;;;8.60;99.90;;;;;;7327911;32;20103;-66
2021/12/29 02:52:38;;;;;;;5.82;4.00;;;8.60;99.90;;;;;;7337634;32;20126;-66
2021/12/29 02:56:40;;;;;;;5.03;3.65;;;8.60;99.90;;;;;;7337348;32;20107;-66
2021/12/29 03:00:42;;;;;;;6.12;3.37;;;8.60;99.90;;;;;;7330795;32;20123;-67
2021/12/29 03:04:43;;;;;;;6.07;4.28;;;8.60;99.90;;;;;;7333176;32;20116;-67
2021/12/29 03:08:45;;;;;;;7.68;5.07;;;8.60;99.90;;;;;;7327967;32;20499;-66
2021/12/29 03:12:47;;;;;;;6.43;4.45;;;8.70;99.90;;;;;;7326360;32;20307;-67
2021/12/29 03:16:49;;;;;;;6.80;4.97;;;8.60;99.90;;;;;;7320522;32;20479;-66
2021/12/29 03:20:51;;;;;;;7.05;5.35;;;8.70;99.90;;;;;;7330278;32;20397;-67
2021/12/29 03:24:53;;;;;;;8.18;5.60;;;8.70;99.90;;;;;;7330048;32;20113;-66
2021/12/29 03:28:58;;;;;;;8.65;6.60;;;8.70;99.90;;;;;;7325657;32;20189;-67
2021/12/29 03:33:06;;;;;;;8.80;5.95;;;8.70;99.90;;;;;;7328932;32;20107;-66
2021/12/29 03:37:08;;;;;;;8.65;5.90;;;8.70;99.90;;;;;;7335970;32;20136;-67
2021/12/29 03:41:14;;;;;;;8.38;6.28;;;8.60;99.90;;;;;;7331100;32;20527;-67
2021/12/29 03:45:16;;;;;;;10.57;6.62;;;8.60;99.90;;;;;;7331150;32;20095;-67
2021/12/29 03:49:18;;;;;;;9.63;6.82;;;8.60;99.90;;;;;;7333160;32;20265;-67
2021/12/29 03:53:21;;;;;;;9.82;7.12;;;8.60;99.90;;;;;;7326536;32;20095;-67
2021/12/29 03:57:22;;;;;;;9.13;6.87;;;8.60;99.90;;;;;;7327928;32;20890;-66
2021/12/29 04:01:25;;;;;;;8.45;7.35;;;8.60;99.90;;;;;;7326883;32;20140;-66
2021/12/29 04:05:29;;;;;;;10.60;8.18;;;8.60;99.90;;;;;;7328879;32;20202;-67
2021/12/29 04:09:30;;;;;;;10.27;7.85;;;8.60;99.90;;;;;;7334994;32;20698;-66
2021/12/29 04:13:32;;;;;;;11.38;8.35;;;8.60;99.90;;;;;;7333081;32;20104;-66
2021/12/29 04:17:37;;;;;;;9.45;8.07;;;8.50;99.90;;;;;;7327888;32;20197;-66
2021/12/29 04:21:39;;;;;;;9.50;7.85;;;8.60;99.90;;;;;;7335882;32;20135;-66
2021/12/29 04:25:45;;;;;;;8.73;7.15;;;8.60;99.90;;;;;;7345303;32;20122;-66
2021/12/29 04:29:46;;;;;;;11.60;7.25;;;8.50;99.90;;;;;;7340199;32;20104;-67
2021/12/29 04:33:49;;;;;;;10.60;6.95;;;8.50;99.90;;;;;;7331986;32;20190;-66
2021/12/29 04:37:52;;;;;;;8.45;6.30;;;8.60;99.90;;;;;;7336137;32;20225;-66
2021/12/29 04:41:54;;;;;;;10.00;6.30;;;8.60;99.90;;;;;;7336211;32;20122;-66
2021/12/29 04:45:55;;;;;;;8.38;6.68;;;8.50;99.90;;;;;;7346167;32;20491;-66
2021/12/29 04:50:01;;;;;;;10.48;7.30;;;8.60;99.90;;;;;;7336885;32;20187;-67
2021/12/29 04:54:05;;;;;;;13.32;7.68;;;8.50;99.90;;;;;;7335642;32;20253;-66
2021/12/29 04:58:07;;;;;;;11.73;8.52;;;8.50;99.90;;;;;;7329008;32;20103;-65
2021/12/29 05:02:09;;;;;;;10.90;9.48;;;8.50;99.90;;;;;;7339611;32;20617;-65
2021/12/29 05:10:13;;;;;;;19.90;14.02;;;8.50;99.90;;;;;;7329019;32;20101;-66
2021/12/29 05:14:15;;;;;;;21.02;14.50;;;8.40;99.90;;;;;;7334420;32;20120;-66
2021/12/29 05:18:16;;;;;;;19.23;14.85;;;8.40;99.90;;;;;;7325865;32;20111;-66
2021/12/29 05:22:18;;;;;;;21.10;15.35;;;8.40;99.90;;;;;;7322213;32;20775;-66
2021/12/29 05:26:20;;;;;;;21.35;15.57;;;8.40;99.90;;;;;;7324659;32;20111;-65
2021/12/29 05:30:23;;;;;;;20.90;15.25;;;8.40;99.90;;;;;;7320011;32;20601;-66
2021/12/29 05:34:24;;;;;;;20.45;15.02;;;8.40;99.90;;;;;;7329108;32;20187;-65
2021/12/29 05:38:26;;;;;;;24.02;16.90;;;8.40;99.90;;;;;;7333426;32;20107;-66
2021/12/29 05:42:28;;;;;;;23.90;15.18;;;8.40;99.90;;;;;;7334416;32;20896;-66
2021/12/29 05:46:29;;;;;;;22.58;15.38;;;8.40;99.90;;;;;;7332456;32;20197;-66
2021/12/29 05:50:32;;;;;;;22.77;16.12;;;8.40;99.90;;;;;;7327737;32;20100;-65
2021/12/29 05:54:33;;;;;;;22.70;15.80;;;8.30;99.90;;;;;;7336345;32;20104;-66
2021/12/29 05:58:36;;;;;;;24.40;16.55;;;8.30;99.90;;;;;;7344679;32;20148;-66
2021/12/29 06:02:38;;;;;;;22.05;16.35;;;8.30;99.90;;;;;;7333595;32;20091;-66
2021/12/29 06:06:40;;;;;;;26.10;16.08;;;8.40;99.90;;;;;;7336718;32;20359;-65
2021/12/29 06:10:41;;;;;;;23.98;17.37;;;8.40;99.90;;;;;;7330045;32;20492;-65
2021/12/29 06:14:44;;;;;;;23.75;15.75;;;8.30;99.90;;;;;;7336582;32;20099;-65
2021/12/29 06:18:46;;;;;;;23.80;15.65;;;8.40;99.90;;;;;;7333974;32;20233;-66
2021/12/29 06:22:48;;;;;;;21.27;15.02;;;8.30;99.90;;;;;;7332102;32;20422;-66
2021/12/29 06:26:49;;;;;;;22.45;16.90;;;8.30;99.90;;;;;;7331340;32;20122;-66
2021/12/29 06:30:51;;;;;;;21.83;15.43;;;8.40;99.90;;;;;;7328691;32;20602;-66
2021/12/29 06:34:53;;;;;;;20.60;15.52;;;8.40;99.90;;;;;;7319902;32;20099;-66
2021/12/29 06:38:55;;;;;;;21.30;15.68;;;8.40;99.90;;;;;;7324093;32;20107;-66
2021/12/29 06:42:57;;;;;;;22.67;15.75;;;8.40;99.90;;;;;;7318983;32;20158;-67
2021/12/29 06:46:59;;;;;;;26.90;16.10;;;8.30;99.90;;;;;;7322312;32;20194;-66
2021/12/29 06:51:01;;;;;;;21.45;16.12;;;8.30;99.90;;;;;;7316109;32;20126;-66
2021/12/29 06:55:03;;;;;;;24.85;16.15;;;8.30;99.90;;;;;;7322133;32;20207;-65
2021/12/29 06:59:05;;;;;;;23.55;15.95;;;8.30;99.90;;;;;;7343416;32;20198;-67
2021/12/29 07:03:07;;;;;;;21.17;15.38;;;8.30;99.90;;;;;;7327498;32;20471;-66
2021/12/29 07:07:08;;;;;;;22.00;16.55;;;8.30;99.90;;;;;;7334922;32;20194;-66
2021/12/29 07:11:10;;;;;;;24.30;15.13;;;8.30;99.90;;;;;;7326279;32;20099;-67
2021/12/29 07:15:12;;;;;;;22.10;15.50;;;8.30;99.90;;;;;;7335670;32;20127;-66
2021/12/29 07:19:13;;;;;;;24.25;16.12;;;8.30;99.90;;;;;;7326976;32;20108;-65
2021/12/29 07:23:15;;;;;;;23.45;15.57;;;8.40;99.90;;;;;;7327787;32;20095;-65
2021/12/29 07:27:17;;;;;;;25.50;15.60;;;8.40;99.90;;;;;;7327672;32;20104;-65
2021/12/29 07:31:20;;;;;;;28.02;16.87;;;8.30;99.90;;;;;;7327895;32;20217;-67
2021/12/29 07:35:41;;;;;;;22.67;16.15;;;8.30;99.90;;;;;;7314185;32;20123;-67
2021/12/29 07:39:43;;;;;;;25.88;16.67;;;8.30;99.90;;;;;;7326569;32;20103;-65
2021/12/29 07:43:45;;;;;;;20.55;14.80;;;8.40;99.90;;;;;;7324130;32;20123;-63
2021/12/29 07:47:48;;;;;;;19.17;14.75;;;8.30;99.90;;;;;;7337679;32;20095;-64
2021/12/29 07:51:51;;;;;;;22.45;16.05;;;8.30;99.90;;;;;;7343911;32;20193;-66
2021/12/29 07:55:53;;;;;;;25.12;15.60;;;8.30;99.90;;;;;;7324762;32;20115;-66
2021/12/29 07:59:55;;;;;;;24.33;15.57;;;8.40;99.90;;;;;;7333329;32;20831;-65
2021/12/29 08:03:56;;;;;;;23.67;15.45;;;8.40;99.90;;;;;;7341572;32;20103;-64
2021/12/29 08:07:58;;;;;;;20.75;13.98;;;8.40;99.90;;;;;;7332762;32;21070;-64
2021/12/29 08:12:00;;;;;;;23.67;14.40;;;8.50;99.90;;;;;;7333748;32;20118;-64
2021/12/29 08:16:01;;;;;;;21.45;14.23;;;8.50;99.90;;;;;;7328733;32;20492;-64
2021/12/29 08:20:06;;;;;;;21.12;13.52;;;8.50;99.90;;;;;;7331143;32;20101;-63
2021/12/29 08:24:08;;;;;;;21.17;14.27;;;8.40;99.90;;;;;;7330930;32;20092;-64
2021/12/29 08:28:09;;;;;;;21.92;14.70;;;8.40;99.90;;;;;;7323227;32;20104;-63
2021/12/29 08:32:11;;;;;;;20.65;13.27;;;8.40;99.90;;;;;;7330272;32;20095;-65
2021/12/29 08:36:13;;;;;;;20.25;12.73;;;8.50;99.90;;;;;;7326839;32;20805;-64
2021/12/29 08:40:15;;;;;;;16.25;11.65;;;8.40;99.90;;;;;;7330420;32;20122;-64
2021/12/29 08:44:17;;;;;;;18.80;11.75;;;8.50;99.90;;;;;;7323966;32;20126;-65
2021/12/29 08:48:19;;;;;;;20.12;12.23;;;8.50;99.90;;;;;;7327355;32;20229;-65
2021/12/29 08:52:20;;;;;;;18.80;11.73;;;8.50;99.90;;;;;;7322627;32;20131;-64
2021/12/29 08:56:23;;;;;;;20.55;12.02;;;8.60;99.90;;;;;;7325571;32;20123;-64
2021/12/29 09:00:25;;;;;;;17.45;11.60;;;8.60;99.90;;;;;;7323668;32;20503;-63
2021/12/29 09:04:26;;;;;;;18.00;11.35;;;8.60;99.90;;;;;;7324385;32;20100;-64
2021/12/29 09:08:32;;;;;;;18.75;11.40;;;8.60;99.90;;;;;;7332379;32;20122;-63
2021/12/29 09:12:34;;;;;;;18.20;10.60;;;8.60;99.90;;;;;;7329516;32;20099;-64
2021/12/29 09:16:35;;;;;;;18.65;11.40;;;8.70;99.90;;;;;;7329491;32;20099;-64
2021/12/29 09:20:44;;;;;;;19.33;10.90;;;8.80;99.90;;;;;;7324658;32;20108;-65
2021/12/29 09:24:46;;;;;;;15.32;10.07;;;8.80;99.90;;;;;;7324172;32;20559;-64
2021/12/29 09:28:48;;;;;;;15.32;10.18;;;8.90;99.90;;;;;;7331375;32;20220;-65
2021/12/29 09:32:50;;;;;;;11.95;8.68;;;9.00;99.90;;;;;;7327624;32;20103;-69
2021/12/29 09:36:52;;;;;;;15.15;9.40;;;9.10;99.90;;;;;;7323023;32;20103;-64
2021/12/29 09:40:54;;;;;;;14.07;9.07;;;9.10;99.90;;;;;;7325570;32;20110;-66
2021/12/29 09:44:56;;;;;;;12.52;7.72;;;9.10;99.90;;;;;;7328103;32;20508;-64
2021/12/29 09:49:00;;;;;;;10.18;7.62;;;9.30;99.90;;;;;;7320423;32;20148;-64
2021/12/29 09:53:03;;;;;;;11.90;7.20;;;9.20;99.90;;;;;;7323922;32;20107;-64
2021/12/29 09:57:05;;;;;;;10.25;6.80;;;9.20;99.90;;;;;;7322164;32;20103;-63
2021/12/29 10:01:08;;;;;;;12.90;6.70;;;9.30;99.90;;;;;;7329158;32;20122;-64
2021/12/29 10:05:10;;;;;;;11.48;7.15;;;9.30;99.90;;;;;;7322535;32;20566;-65
2021/12/29 10:09:17;;;;;;;11.32;6.70;;;9.30;99.90;;;;;;7332727;32;20183;-64
2021/12/29 10:13:19;;;;;;;10.55;6.75;;;9.30;99.90;;;;;;7321614;32;20116;-64
2021/12/29 10:17:26;;;;;;;11.80;7.10;;;9.20;99.90;;;;;;7317065;32;20099;-63
2021/12/29 10:21:29;;;;;;;10.88;6.87;;;9.30;99.90;;;;;;7325301;32;20130;-64
2021/12/29 10:25:31;;;;;;;11.10;6.60;;;9.30;99.90;;;;;;7321972;32;20107;-64
2021/12/29 10:29:33;;;;;;;9.48;6.95;;;9.30;99.90;;;;;;7325744;32;20122;-65
2021/12/29 10:33:38;;;;;;;11.35;7.12;;;9.30;99.90;;;;;;7318659;32;20103;-64
2021/12/29 10:37:40;;;;;;;11.30;7.80;;;9.30;99.90;;;;;;7324079;32;20111;-66
2021/12/29 10:41:58;;;;;;;13.07;7.97;;;9.30;99.90;;;;;;7322601;32;20104;-64
2021/12/29 10:46:00;;;;;;;16.35;9.43;;;9.40;99.90;;;;;;7322605;32;20135;-64
2021/12/29 10:50:10;;;;;;;18.90;11.20;;;9.40;99.90;;;;;;7324617;32;20098;-65
2021/12/29 10:54:17;;;;;;;19.40;11.15;;;9.50;99.90;;;;;;7324809;32;20111;-65
2021/12/29 10:58:23;;;;;;;11.23;7.60;;;9.70;99.90;;;;;;7321009;32;20232;-65
2021/12/29 11:02:27;;;;;;;12.25;7.70;;;9.90;99.90;;;;;;7320872;32;20654;-64
2021/12/29 11:06:29;;;;;;;13.23;7.40;;;10.00;99.90;;;;;;7328543;32;20222;-64
2021/12/29 11:10:31;;;;;;;11.48;5.50;;;10.00;99.90;;;;;;7328755;32;20202;-63
2021/12/29 11:14:33;;;;;;;11.18;5.65;;;10.10;99.90;;;;;;7330538;32;20107;-63
2021/12/29 11:18:47;;;;;;;9.02;4.68;;;10.10;99.90;;;;;;7337217;32;20116;-64
2021/12/29 11:22:51;;;;;;;12.82;5.62;;;10.00;99.90;;;;;;7333322;32;20201;-63
2021/12/29 11:26:52;;;;;;;9.82;4.97;;;10.00;99.90;;;;;;7333544;32;20198;-64
2021/12/29 11:30:56;;;;;;;8.57;4.78;;;9.90;99.90;;;;;;7336403;32;20130;-63
2021/12/29 11:35:07;;;;;;;14.98;5.22;;;9.90;99.90;;;;;;7327209;32;20108;-63
2021/12/29 11:39:09;;;;;;;10.70;4.62;;;9.90;99.90;;;;;;7329683;32;20103;-63
2021/12/29 11:43:11;;;;;;;9.80;5.20;;;9.90;99.90;;;;;;7330275;32;20111;-64
2021/12/29 11:47:14;;;;;;;11.73;4.68;;;9.90;99.90;;;;;;7326582;32;20880;-64
2021/12/29 11:51:19;;;;;;;9.88;4.75;;;9.80;99.90;;;;;;7337300;32;20118;-64
2021/12/29 11:55:26;;;;;;;12.00;4.40;;;9.80;99.90;;;;;;7324463;32;20111;-63
2021/12/29 11:59:31;;;;;;;11.40;4.28;;;9.90;99.90;;;;;;7329375;32;20099;-63
2021/12/29 12:03:56;;;;;;;13.15;4.40;;;9.80;99.90;;;;;;7323934;32;20100;-64
2021/12/29 12:08:10;;;;;;;9.98;4.97;;;9.80;99.90;;;;;;7317427;32;20214;-67
2021/12/29 12:12:13;;;;;;;9.82;4.37;;;9.90;99.90;;;;;;7321373;32;20202;-64
2021/12/29 12:16:15;;;;;;;10.63;4.20;;;10.00;99.90;;;;;;7310294;32;20199;-64
2021/12/29 12:20:17;;;;;;;11.88;4.37;;;9.90;99.90;;;;;;7322060;32;20142;-64
2021/12/29 12:24:23;;;;;;;10.25;4.20;;;9.90;99.90;;;;;;7322280;32;20327;-65
2021/12/29 12:28:25;;;;;;;8.40;3.92;;;9.90;99.90;;;;;;7325002;32;20141;-64
2021/12/29 12:32:27;;;;;;;8.38;3.85;;;9.90;99.90;;;;;;7328924;32;20123;-65
2021/12/29 12:36:33;;;;;;;9.40;4.60;;;9.80;99.90;;;;;;7320635;32;20131;-64
2021/12/29 12:40:36;;;;;;;10.43;4.72;;;9.80;99.90;;;;;;7324276;32;20092;-64
2021/12/29 12:44:40;;;;;;;9.48;5.45;;;9.80;99.90;;;;;;7326142;32;20737;-64
2021/12/29 12:48:42;;;;;;;12.75;6.15;;;9.80;99.90;;;;;;7329206;32;20545;-63
2021/12/29 12:52:44;;;;;;;11.07;5.10;;;9.80;99.90;;;;;;7320006;32;20108;-63
2021/12/29 12:56:47;;;;;;;10.40;5.60;;;9.70;99.90;;;;;;7318795;32;20099;-64
2021/12/29 13:01:01;;;;;;;10.55;5.07;;;9.60;99.90;;;;;;7321861;32;20190;-65
2021/12/29 13:05:02;;;;;;;8.00;5.35;;;9.70;99.90;;;;;;7322829;32;20679;-64
2021/12/29 13:09:06;;;;;;;9.90;4.82;;;9.80;99.90;;;;;;7322728;32;20118;-63
2021/12/29 13:13:15;;;;;;;11.43;4.65;;;9.80;99.90;;;;;;7319254;32;20608;-64
2021/12/29 13:17:16;;;;;;;7.90;3.40;;;9.70;99.90;;;;;;7320808;32;20524;-63
2021/12/29 13:21:27;;;;;;;7.10;3.62;;;9.70;99.90;;;;;;7317294;32;20872;-63
2021/12/29 13:25:29;;;;;;;8.23;3.62;;;9.60;99.90;;;;;;7325798;32;20206;-65
2021/12/29 13:29:31;;;;;;;8.13;4.03;;;9.60;99.90;;;;;;7326382;32;20233;-64
2021/12/29 13:33:48;;;;;;;8.60;3.92;;;9.60;99.90;;;;;;7331682;32;20184;-63
2021/12/29 13:37:49;;;;;;;7.87;3.50;;;9.60;99.90;;;;;;7321652;32;20222;-64
2021/12/29 13:41:51;;;;;;;9.63;3.62;;;9.60;99.90;;;;;;7322799;32;20225;-64
2021/12/29 13:45:55;;;;;;;5.43;2.47;;;9.40;99.90;;;;;;7321092;32;20107;-64
2021/12/29 13:50:10;;;;;;;7.62;2.53;;;9.50;99.90;;;;;;7318353;32;20150;-64
2021/12/29 13:54:15;;;;;;;6.18;2.67;;;9.40;99.90;;;;;;7321070;32;20202;-64
2021/12/29 13:58:17;;;;;;;8.60;2.75;;;9.30;99.90;;;;;;7323332;32;20107;-65
2021/12/29 14:02:18;;;;;;;6.72;2.95;;;9.30;99.90;;;;;;7317210;32;20409;-65
2021/12/29 14:06:20;;;;;;;10.75;2.50;;;9.30;99.90;;;;;;7319554;32;20207;-64
2021/12/29 14:10:22;;;;;;;8.48;3.03;;;9.30;99.90;;;;;;7315032;32;20150;-65
2021/12/29 14:14:24;;;;;;;5.87;2.45;;;9.20;99.90;;;;;;7315763;32;20742;-64
2021/12/29 14:18:28;;;;;;;6.78;2.85;;;9.30;99.90;;;;;;7315579;32;20123;-64
2021/12/29 14:22:31;;;;;;;8.05;2.90;;;9.20;99.90;;;;;;7323743;32;20182;-63
2021/12/29 14:26:43;;;;;;;5.32;2.10;;;9.20;99.90;;;;;;7315377;32;20103;-62
2021/12/29 14:30:58;;;;;;;3.75;1.90;;;9.20;99.90;;;;;;7318737;32;20103;-62
2021/12/29 14:35:04;;;;;;;4.47;2.03;;;9.00;99.90;;;;;;7314961;32;20191;-63
2021/12/29 14:39:09;;;;;;;7.75;1.75;;;9.00;99.90;;;;;;7319958;32;20734;-63
2021/12/29 14:43:21;;;;;;;7.12;2.42;;;8.90;99.90;;;;;;7322551;32;20617;-63
2021/12/29 14:47:23;;;;;;;7.10;2.30;;;8.90;99.90;;;;;;7317294;32;20100;-64
2021/12/29 14:51:25;;;;;;;4.05;2.53;;;8.80;99.90;;;;;;7319721;32;20142;-64
2021/12/29 14:55:31;;;;;;;4.80;2.53;;;8.90;99.90;;;;;;7319449;32;20100;-64
2021/12/29 14:59:36;;;;;;;4.57;2.90;;;8.80;99.90;;;;;;7320478;32;20096;-63
2021/12/29 15:03:39;;;;;;;5.00;2.60;;;8.80;99.90;;;;;;7313429;32;20475;-63
2021/12/29 15:07:43;;;;;;;3.92;2.67;;;8.80;99.90;;;;;;7320021;32;20258;-63
2021/12/29 15:11:46;;;;;;;4.43;2.83;;;8.80;99.90;;;;;;7323876;32;20210;-63
2021/12/29 15:15:50;;;;;;;6.10;2.55;;;8.70;99.90;;;;;;7334381;32;20130;-64
2021/12/29 15:19:53;;;;;;;6.53;2.37;;;8.70;99.90;;;;;;7339638;32;20095;-63
2021/12/29 15:23:54;;;;;;;7.05;2.30;;;8.60;99.90;;;;;;7324451;32;20121;-63
2021/12/29 15:27:59;;;;;;;4.78;2.03;;;8.50;99.90;;;;;;7322131;32;20708;-63
2021/12/29 15:32:01;;;;;;;3.17;1.77;;;8.60;99.90;;;;;;7327316;32;20153;-63
2021/12/29 15:36:06;;;;;;;8.07;1.90;;;8.50;99.90;;;;;;7328638;32;20599;-63
2021/12/29 15:40:10;;;;;;;3.55;1.67;;;8.50;99.90;;;;;;7326550;32;20117;-63
2021/12/29 15:44:12;;;;;;;3.20;1.80;;;8.50;99.90;;;;;;7330230;32;20190;-63
2021/12/29 15:48:14;;;;;;;4.37;1.67;;;8.60;99.90;;;;;;7330411;32;20100;-63
2021/12/29 15:52:16;;;;;;;4.35;1.67;;;8.50;99.90;;;;;;7326715;32;20228;-63
2021/12/29 15:56:19;;;;;;;2.92;1.65;;;8.50;99.90;;;;;;7325592;32;20559;-63
2021/12/29 16:00:24;;;;;;;6.10;2.60;;;8.50;99.90;;;;;;7328509;32;20266;-63
2021/12/29 16:04:26;;;;;;;4.28;1.95;;;8.50;99.90;;;;;;7330176;32;20793;-62
2021/12/29 16:08:28;;;;;;;5.28;2.05;;;8.50;99.90;;;;;;7334768;32;20106;-63
2021/12/29 16:12:30;;;;;;;5.68;2.40;;;8.60;99.90;;;;;;7335203;32;20103;-64
2021/12/29 16:16:31;;;;;;;4.22;2.55;;;8.50;99.90;;;;;;7331077;32;20503;-63
2021/12/29 16:20:34;;;;;;;4.22;2.30;;;8.60;99.90;;;;;;7338680;32;20126;-63
2021/12/29 16:24:35;;;;;;;4.22;2.70;;;8.60;99.90;;;;;;7332690;32;20515;-63
2021/12/29 16:28:37;;;;;;;5.30;2.40;;;8.60;99.90;;;;;;7334653;32;20095;-63
2021/12/29 16:32:39;;;;;;;6.53;2.75;;;8.60;99.90;;;;;;7333665;32;20122;-64
2021/12/29 16:36:41;;;;;;;4.85;2.97;;;8.60;99.90;;;;;;7328242;32;20194;-64
2021/12/29 16:40:43;;;;;;;4.82;2.92;;;8.60;99.90;;;;;;7330933;32;20129;-63
2021/12/29 16:44:45;;;;;;;4.45;2.60;;;8.60;99.90;;;;;;7331128;32;20104;-63
2021/12/29 16:48:47;;;;;;;4.82;2.33;;;8.60;99.90;;;;;;7334230;32;20142;-63
2021/12/29 16:52:48;;;;;;;3.10;2.42;;;8.70;99.90;;;;;;7333873;32;20541;-63
2021/12/29 16:56:50;;;;;;;4.78;3.17;;;8.60;99.90;;;;;;7331203;32;20840;-63
2021/12/29 17:00:52;;;;;;;4.25;2.67;;;8.70;99.90;;;;;;7333577;32;20213;-64
2021/12/29 17:04:55;;;;;;;4.85;2.80;;;8.70;99.90;;;;;;7340769;32;20122;-63
2021/12/29 17:09:04;;;;;;;2.97;2.50;;;8.70;99.90;;;;;;7330267;32;20274;-63
2021/12/29 17:13:05;;;;;;;4.25;2.95;;;8.70;99.90;;;;;;7329619;32;20099;-64
2021/12/29 17:17:07;;;;;;;4.60;3.03;;;9.00;99.90;;;;;;7330225;32;20192;-63
2021/12/29 17:21:09;;;;;;;3.75;2.83;;;9.10;99.90;;;;;;7328478;32;20751;-63
2021/12/29 17:25:14;;;;;;;3.78;3.12;;;9.00;99.90;;;;;;7328034;32;20178;-63
2021/12/29 17:29:16;;;;;;;4.95;3.40;;;8.90;99.90;;;;;;7321207;32;20796;-63
2021/12/29 17:33:17;;;;;;;4.68;3.78;;;9.00;99.90;;;;;;7328270;32;20125;-63
2021/12/29 17:37:20;;;;;;;7.00;4.03;;;8.90;99.90;;;;;;7325162;32;20130;-63
2021/12/29 17:41:22;;;;;;;5.00;4.50;;;9.00;99.90;;;;;;7323026;32;20202;-63
2021/12/29 17:45:24;;;;;;;5.37;4.60;;;9.00;99.90;;;;;;7333011;32;20121;-63
2021/12/29 17:49:26;;;;;;;6.12;4.55;;;9.10;99.90;;;;;;7333442;32;20099;-62
2021/12/29 17:53:27;;;;;;;8.00;4.68;;;9.10;99.90;;;;;;7332308;32;20487;-63
2021/12/29 17:57:30;;;;;;;6.00;4.45;;;9.10;99.90;;;;;;7329782;32;20230;-62
2021/12/29 18:01:32;;;;;;;6.45;4.90;;;9.10;99.90;;;;;;7324731;32;20189;-63
2021/12/29 18:05:34;;;;;;;7.07;5.82;;;9.20;99.90;;;;;;7326084;32;20172;-62
2021/12/29 18:09:36;;;;;;;6.97;5.75;;;9.30;99.90;;;;;;7329089;32;20199;-60
2021/12/29 18:13:39;;;;;;;7.00;5.82;;;9.30;99.90;;;;;;7320398;32;20210;-62
2021/12/29 18:17:42;;;;;;;8.02;5.90;;;9.30;99.90;;;;;;7320847;32;20122;-63
2021/12/29 18:21:46;;;;;;;8.43;6.25;;;9.40;99.90;;;;;;7323558;32;20100;-64
2021/12/29 18:25:48;;;;;;;6.97;5.82;;;9.40;99.90;;;;;;7324302;32;20119;-64
2021/12/29 18:29:50;;;;;;;6.72;5.37;;;9.40;99.90;;;;;;7321899;32;20103;-64
2021/12/29 18:33:51;;;;;;;7.53;6.12;;;9.40;99.90;;;;;;7325330;32;20535;-63
2021/12/29 18:37:53;;;;;;;7.78;6.20;;;9.50;99.90;;;;;;7329847;32;20108;-65
2021/12/29 18:41:55;;;;;;;7.78;6.62;;;9.50;99.90;;;;;;7332556;32;20743;-64
2021/12/29 18:45:57;;;;;;;7.97;6.15;;;9.60;99.90;;;;;;7326347;32;20104;-65
2021/12/29 18:49:58;;;;;;;9.90;7.25;;;9.60;99.90;;;;;;7325858;32;20095;-65
2021/12/29 18:54:01;;;;;;;8.63;7.50;;;9.70;99.90;;;;;;7328961;32;20111;-65
2021/12/29 18:58:07;;;;;;;10.88;9.13;;;9.90;99.90;;;;;;7329626;32;20123;-65
2021/12/29 19:02:10;;;;;;;11.57;9.95;;;10.10;99.90;;;;;;7325561;32;20131;-65
2021/12/29 19:06:12;;;;;;;13.02;10.93;;;10.20;99.90;;;;;;7323028;32;20242;-66
2021/12/29 19:10:15;;;;;;;11.12;9.93;;;10.30;99.90;;;;;;7331792;32;20186;-66
2021/12/29 19:14:22;;;;;;;14.98;11.12;;;10.30;99.90;;;;;;7328460;32;20533;-66
2021/12/29 19:18:25;;;;;;;12.45;11.15;;;10.40;99.90;;;;;;7328054;32;20108;-66
2021/12/29 19:22:27;;;;;;;13.18;11.40;;;10.50;99.90;;;;;;7330984;32;20120;-66
2021/12/29 19:26:31;;;;;;;12.60;11.00;;;10.50;99.90;;;;;;7322360;32;20284;-64
2021/12/29 19:30:33;;;;;;;17.17;12.75;;;10.50;99.90;;;;;;7324929;32;20096;-64
2021/12/29 19:34:35;;;;;;;12.80;10.80;;;10.60;99.90;;;;;;7321374;32;20107;-63
2021/12/29 19:38:37;;;;;;;15.00;11.25;;;10.70;99.90;;;;;;7318532;32;20301;-63
2021/12/29 19:42:40;;;;;;;11.05;9.85;;;10.80;99.90;;;;;;7319297;32;20092;-64
2021/12/29 19:46:42;;;;;;;10.98;9.80;;;10.90;99.90;;;;;;7323309;32;20205;-64
2021/12/29 19:50:45;;;;;;;10.55;9.45;;;11.10;99.90;;;;;;7320929;32;20107;-64
2021/12/29 19:54:49;;;;;;;9.20;8.25;;;11.20;99.90;;;;;;7326214;32;20112;-64
2021/12/29 19:58:51;;;;;;;8.93;7.60;;;11.30;99.90;;;;;;7313865;32;20118;-64
2021/12/29 20:02:53;;;;;;;9.55;8.55;;;11.30;99.90;;;;;;7324382;32;20225;-64
2021/12/29 20:06:55;;;;;;;11.15;8.95;;;11.40;99.90;;;;;;7326064;32;20103;-65
2021/12/29 20:10:59;;;;;;;8.93;8.02;;;11.50;99.90;;;;;;7325093;32;20124;-66
2021/12/29 20:15:00;;;;;;;10.52;8.23;;;11.60;99.90;;;;;;7333138;32;20150;-64
2021/12/29 20:19:03;;;;;;;9.98;8.25;;;11.60;99.90;;;;;;7324491;32;20932;-64
2021/12/29 20:23:08;;;;;;;10.35;8.30;;;11.60;99.90;;;;;;7333615;32;20174;-64
2021/12/29 20:27:10;;;;;;;12.23;9.48;;;11.70;99.90;;;;;;7337150;32;20233;-64
2021/12/29 20:31:18;;;;;;;13.93;10.50;;;11.70;99.90;;;;;;7324433;32;20257;-64
2021/12/29 20:35:20;;;;;;;11.30;9.50;;;11.80;99.90;;;;;;7328094;32;20122;-64
2021/12/29 20:39:22;;;;;;;14.82;9.68;;;11.80;99.90;;;;;;7313306;32;20633;-64
2021/12/29 20:43:25;;;;;;;15.55;10.93;;;11.80;99.90;;;;;;7321284;32;20134;-64
2021/12/29 20:47:27;;;;;;;15.80;9.18;;;11.90;99.90;;;;;;7322101;32;20550;-64
2021/12/29 20:51:30;;;;;;;16.48;11.30;;;11.90;99.90;;;;;;7328677;32;20203;-63
2021/12/29 20:55:32;;;;;;;17.17;11.07;;;11.90;99.90;;;;;;7326776;32;20213;-63
2021/12/29 20:59:34;;;;;;;18.27;11.52;;;11.90;99.90;;;;;;7329511;32;20475;-64
2021/12/29 21:03:36;;;;;;;17.62;11.40;;;12.10;99.90;;;;;;7327438;32;20140;-65
2021/12/29 21:07:41;;;;;;;16.35;10.98;;;12.10;99.90;;;;;;7312641;32;20099;-65
2021/12/29 21:11:45;;;;;;;23.12;12.30;;;12.10;99.90;;;;;;7315262;32;20105;-65
2021/12/29 21:15:47;;;;;;;17.42;11.12;;;12.10;99.90;;;;;;7314051;32;20108;-64